Maersk Nimes — VRFO7 — position and weather

sailwx.info

Track history (hours):
 
Tides and Currents Weather Stations Pressure Air Temp Water Temp Dewpoint Dewpoint Depression Visibility Wind Speed Wind Dir Waves Ship Positions

Maersk Nimes

Last reported at 2014-Oct-22 23:33 UTC. Time now 2014-Oct-23 00:06 UTC.
Position N 49°58' W 003°03'.

Length 210 m; draft 11.1 m.

Type: Cargo ship. MMSI: 477559200.

Date/timePositionNaut miles runAvg speedWind from/ knotsBaromVisibWave heightAir tempDewpointWater temp
2014-Oct-22 23:33N 49°58' W 003°03'1313.1
2014-Oct-22 22:33N 50°02' W 002°44'1211.9
2014-Oct-22 21:33N 50°06' W 002°27'1110.5
2014-Oct-22 20:33N 50°09' W 002°11'5410.3
2014-Oct-22 15:16N 50°22' W 000°48'1014.0
2014-Oct-22 14:32N 50°24' W 000°32'7612.7
2014-Oct-22 08:33N 50°58' E 001°15'8 8.5
2014-Oct-22 07:33N 51°05' E 001°23'1414.1
2014-Oct-22 06:34N 51°12' E 001°42'1313.5
2014-Oct-22 05:34N 51°23' E 001°55'9 9.4
2014-Oct-22 04:34N 51°22' E 002°10'10 9.8
2014-Oct-22 03:33N 51°22' E 002°26'10 9.6
2014-Oct-22 02:33N 51°23' E 002°41'8 8.5
2014-Oct-22 01:33N 51°25' E 002°55'8 8.0
2014-Oct-22 00:33N 51°24' E 003°07'8 7.5
2014-Oct-21 23:33N 51°24' E 003°19'8 7.5
2014-Oct-21 22:33N 51°25' E 003°31'6 5.7
2014-Oct-21 21:33N 51°26' E 003°40'1010.1
2014-Oct-21 20:33N 51°22' E 003°55'7 6.7
2014-Oct-21 19:34N 51°22' E 004°06'7 7.4
2014-Oct-21 18:33N 51°19' E 004°16'1 1.2
2014-Oct-21 17:32N 51°18' E 004°16'0 0.0
2014-Oct-21 16:32N 51°18' E 004°16'0 0.0
2014-Oct-21 15:32N 51°18' E 004°16'0 0.0
2014-Oct-21 14:32N 51°18' E 004°16'0 0.0
2014-Oct-21 13:32N 51°18' E 004°16'0 0.0
2014-Oct-21 12:32N 51°18' E 004°16'0 0.0
2014-Oct-21 11:32N 51°18' E 004°16'0 0.0
2014-Oct-21 10:26N 51°18' E 004°16'0 0.0
2014-Oct-21 09:17N 51°18' E 004°16'0 0.0
2014-Oct-21 08:32N 51°18' E 004°16'0 0.0
2014-Oct-21 07:32N 51°18' E 004°16'0 0.0
2014-Oct-21 06:32N 51°18' E 004°16'0 0.0
2014-Oct-21 05:32N 51°18' E 004°16'0 0.0
2014-Oct-21 04:32N 51°18' E 004°16'0 0.0
2014-Oct-21 03:32N 51°18' E 004°16'0 0.0
2014-Oct-21 02:32N 51°18' E 004°16'1 1.4
2014-Oct-21 01:33N 51°19' E 004°16'1010.1
2014-Oct-21 00:33N 51°24' E 004°02'1211.8
2014-Oct-20 23:33N 51°23' E 003°43'1111.2
2014-Oct-20 22:33N 51°25' E 003°25'1615.7
2014-Oct-20 21:33N 51°28' E 003°01'1616.3
2014-Oct-20 20:33N 51°43' E 003°13'1313.3
2014-Oct-20 19:33N 51°55' E 003°20'1514.9
2014-Oct-20 18:33N 52°04' E 003°40'1212.5
2014-Oct-20 17:33N 52°01' E 003°59'1212.0
2014-Oct-20 16:33N 51°54' E 004°16'7 6.5
2014-Oct-20 15:33N 51°54' E 004°26'0 0.3
2014-Oct-20 14:32N 51°53' E 004°26'0 0.0
2014-Oct-20 13:32N 51°53' E 004°26'0 0.0
2014-Oct-20 12:32N 51°53' E 004°26'0 0.0
2014-Oct-20 11:32N 51°53' E 004°26'0 0.0
2014-Oct-20 10:32N 51°53' E 004°26'0 0.0
2014-Oct-20 09:32N 51°53' E 004°26'0 0.0
2014-Oct-20 08:32N 51°53' E 004°26'0 0.0
2014-Oct-20 07:32N 51°53' E 004°26'0 0.0
2014-Oct-20 06:32N 51°53' E 004°26'0 0.0
2014-Oct-20 05:32N 51°53' E 004°26'0 0.0
2014-Oct-20 04:33N 51°53' E 004°26'3 2.9
2014-Oct-20 03:33N 51°54' E 004°21'9 8.9
2014-Oct-20 02:34N 51°58' E 004°08'1010.5
2014-Oct-20 01:33N 52°01' E 003°52'8 7.9
2014-Oct-20 00:33N 52°08' E 003°46'1313.0
2014-Oct-19 23:33N 52°21' E 003°48'1313.5
2014-Oct-19 22:33N 52°34' E 003°53'1914.3
2014-Oct-19 21:13N 52°53' E 003°60'2414.2
2014-Oct-19 19:32N 53°11' E 004°25'1211.4
2014-Oct-19 18:28N 53°22' E 004°34'910.4
2014-Oct-19 17:33N 53°29' E 004°44'1010.2
2014-Oct-19 16:33N 53°33' E 005°00'10 9.8
2014-Oct-19 15:33N 53°36' E 005°16'10 9.8
2014-Oct-19 14:33N 53°39' E 005°32'1010.3
2014-Oct-19 13:33N 53°42' E 005°48'1110.9
2014-Oct-19 12:33N 53°46' E 006°05'1111.4
2014-Oct-19 11:33N 53°49' E 006°24'3711.1
2014-Oct-19 08:14N 53°58' E 007°25'710.8
2014-Oct-19 07:33N 53°59' E 007°37'1010.2
2014-Oct-19 06:33N 53°53' E 007°51'1212.0
2014-Oct-19 05:33N 53°47' E 008°09'1414.2
2014-Oct-19 04:33N 53°38' E 008°27'3 3.3
2014-Oct-19 03:32N 53°36' E 008°31'0 0.0
2014-Oct-19 02:32N 53°36' E 008°31'0 0.0
2014-Oct-19 01:32N 53°36' E 008°31'0 0.0
2014-Oct-19 00:32N 53°36' E 008°31'0 0.0
2014-Oct-18 23:32N 53°36' E 008°31'0 0.0
2014-Oct-18 22:29N 53°36' E 008°31'0 0.0
2014-Oct-18 21:32N 53°36' E 008°31'0 0.0
2014-Oct-18 20:32N 53°36' E 008°31'0 0.0
2014-Oct-18 19:32N 53°36' E 008°31'0 0.0
2014-Oct-18 18:32N 53°36' E 008°31'0 0.0
2014-Oct-18 17:32N 53°36' E 008°31'0 0.0
2014-Oct-18 16:32N 53°36' E 008°31'0 0.0
2014-Oct-18 15:32N 53°36' E 008°31'0 0.0
2014-Oct-18 14:32N 53°36' E 008°31'0 0.0
2014-Oct-18 13:32N 53°36' E 008°31'0 0.0
2014-Oct-18 12:32N 53°36' E 008°31'0 0.0
2014-Oct-18 11:32N 53°36' E 008°31'0 0.0
2014-Oct-18 10:32N 53°36' E 008°31'0 0.0
2014-Oct-18 09:34N 53°36' E 008°31'7 7.5
2014-Oct-18 08:33N 53°41' E 008°22'1514.8
2014-Oct-18 07:33N 53°50' E 008°03'1313.3
2014-Oct-18 06:33N 53°52' E 007°41'1 0.6
2014-Oct-18 05:33N 53°53' E 007°40'0 0.4
2014-Oct-18 04:34N 53°52' E 007°40'0 0.3
2014-Oct-18 03:33N 53°53' E 007°39'1 0.6
2014-Oct-18 02:33N 53°53' E 007°38'0 0.5
2014-Oct-18 01:33N 53°53' E 007°38'4 3.9
2014-Oct-18 00:33N 53°57' E 007°37'1212.3
2014-Oct-17 23:33N 54°08' E 007°28'1717.2
2014-Oct-17 22:34N 54°24' E 007°17'1716.9
2014-Oct-17 21:33N 54°39' E 007°07'1716.7
2014-Oct-17 20:33N 54°55' E 006°56'1716.8
2014-Oct-17 19:33N 55°11' E 006°47'1616.4
2014-Oct-17 18:33N 55°27' E 006°44'1717.3
2014-Oct-17 17:33N 55°44' E 006°47'1717.0
2014-Oct-17 16:33N 56°02' E 006°46'1817.5
2014-Oct-17 15:32N 56°18' E 006°57'12916.0
2014-Oct-17 07:28N 57°47' E 009°49'1617.5
2014-Oct-17 06:33N 57°49' E 010°18'1717.5
2014-Oct-17 05:34N 57°47' E 010°50'1414.0
2014-Oct-17 04:33N 57°38' E 011°10'1817.7
2014-Oct-17 03:33N 57°24' E 011°30'1918.3
2014-Oct-17 02:30N 57°06' E 011°42'1717.7
2014-Oct-17 01:33N 56°50' E 011°52'1716.9
2014-Oct-17 00:33N 56°34' E 011°43'11716.6
2014-Oct-16 17:28N 54°41' E 010°47'3317.5
2014-Oct-16 15:34N 54°28' E 011°40'1717.5
2014-Oct-16 14:33N 54°27' E 012°10'1615.2
2014-Oct-16 13:31N 54°40' E 012°25'6717.0
2014-Oct-16 09:33N 55°08' E 014°11'1717.3
2014-Oct-16 08:33N 55°21' E 014°31'1716.5
2014-Oct-16 07:33N 55°32' E 014°53'1717.0
2014-Oct-16 06:33N 55°40' E 015°19'2317.3
2014-Oct-16 05:13N 55°51' E 015°55'1117.3
2014-Oct-16 04:33N 55°57' E 016°13'31616.6
2014-Oct-15 09:33N 59°38' E 023°18'1717.3
2014-Oct-15 08:33N 59°43' E 023°50'1615.7
2014-Oct-15 07:33N 59°47' E 024°20'6117.3
2014-Oct-15 04:03N 59°59' E 026°19'816.8
2014-Oct-15 03:33N 60°01' E 026°35'1616.3
2014-Oct-15 02:33N 60°01' E 027°08'9313.2
2014-Oct-14 19:32N 59°53' E 030°12'0 0.2
2014-Oct-14 18:31N 59°53' E 030°11'0 0.0
2014-Oct-14 17:31N 59°53' E 030°11'0 0.0
2014-Oct-14 16:31N 59°53' E 030°11'0 0.0
2014-Oct-14 15:31N 59°53' E 030°11'0 0.0
2014-Oct-14 14:31N 59°53' E 030°11'0 0.0
2014-Oct-14 13:31N 59°53' E 030°11'0 0.0
2014-Oct-14 12:31N 59°53' E 030°11'0 0.0
2014-Oct-14 11:32N 59°53' E 030°11'0 0.0
2014-Oct-14 10:32N 59°53' E 030°11'0 0.0
2014-Oct-14 09:33N 59°53' E 030°11'0 0.0
2014-Oct-14 08:30N 59°53' E 030°11'0 0.0
2014-Oct-14 07:33N 59°53' E 030°11'0 0.0
2014-Oct-14 06:33N 59°53' E 030°11'0 0.0
2014-Oct-14 05:33N 59°53' E 030°11'0 0.0
2014-Oct-14 03:33N 59°53' E 030°11'0 0.0
2014-Oct-14 02:33N 59°53' E 030°11'0 0.0
2014-Oct-14 01:33N 59°53' E 030°11'0 0.0
2014-Oct-14 00:33N 59°53' E 030°11'0 0.0
2014-Oct-13 23:18N 59°53' E 030°11'0 0.0
2014-Oct-13 22:33N 59°53' E 030°11'0 0.0
2014-Oct-13 21:30N 59°53' E 030°11'0 0.0
2014-Oct-13 20:33N 59°53' E 030°11'0 0.0
2014-Oct-13 19:30N 59°53' E 030°11'0 0.0
2014-Oct-13 18:33N 59°53' E 030°11'0 0.0
2014-Oct-13 17:15N 59°53' E 030°11'0 0.0
2014-Oct-13 14:33N 59°53' E 030°11'0 0.0
2014-Oct-13 13:33N 59°53' E 030°11'0 0.0
2014-Oct-13 12:33N 59°53' E 030°11'0 0.0
2014-Oct-13 11:06N 59°53' E 030°11'0 0.0
2014-Oct-13 10:12N 59°53' E 030°11'0 0.0
2014-Oct-13 09:33N 59°53' E 030°11'0 0.0
2014-Oct-13 08:18N 59°53' E 030°11'0 0.0
2014-Oct-13 07:33N 59°53' E 030°11'0 0.0
2014-Oct-13 06:33N 59°53' E 030°11'0 0.0
2014-Oct-13 05:33N 59°53' E 030°11'0 0.0
2014-Oct-13 04:33N 59°53' E 030°11'0 0.0
2014-Oct-13 03:33N 59°53' E 030°11'0 0.0
2014-Oct-13 02:33N 59°53' E 030°11'0 0.0
2014-Oct-13 01:33N 59°53' E 030°11'0 0.0
2014-Oct-13 00:33N 59°53' E 030°11'  
Track history (hours):
 
Tides and Currents Weather Stations Pressure Air Temp Water Temp Dewpoint Dewpoint Depression Visibility Wind Speed Wind Dir Waves Ship Positions

Maersk Nimes

Last reported at 2014-Oct-22 23:33 UTC. Time now 2014-Oct-23 00:06 UTC.
Position N 49°58' W 003°03'.

Length 210 m; draft 11.1 m.

Type: Cargo ship. MMSI: 477559200.

Date/timePositionNaut miles runAvg speedWind from/ knotsBaromVisibWave heightAir tempDewpointWater temp
2014-Oct-22 23:33N 49°58' W 003°03'1313.1
2014-Oct-22 22:33N 50°02' W 002°44'1211.9
2014-Oct-22 21:33N 50°06' W 002°27'1110.5
2014-Oct-22 20:33N 50°09' W 002°11'5410.3
2014-Oct-22 15:16N 50°22' W 000°48'1014.0
2014-Oct-22 14:32N 50°24' W 000°32'7612.7
2014-Oct-22 08:33N 50°58' E 001°15'8 8.5
2014-Oct-22 07:33N 51°05' E 001°23'1414.1
2014-Oct-22 06:34N 51°12' E 001°42'1313.5
2014-Oct-22 05:34N 51°23' E 001°55'9 9.4
2014-Oct-22 04:34N 51°22' E 002°10'10 9.8
2014-Oct-22 03:33N 51°22' E 002°26'10 9.6
2014-Oct-22 02:33N 51°23' E 002°41'8 8.5
2014-Oct-22 01:33N 51°25' E 002°55'8 8.0
2014-Oct-22 00:33N 51°24' E 003°07'8 7.5
2014-Oct-21 23:33N 51°24' E 003°19'8 7.5
2014-Oct-21 22:33N 51°25' E 003°31'6 5.7
2014-Oct-21 21:33N 51°26' E 003°40'1010.1
2014-Oct-21 20:33N 51°22' E 003°55'7 6.7
2014-Oct-21 19:34N 51°22' E 004°06'7 7.4
2014-Oct-21 18:33N 51°19' E 004°16'1 1.2
2014-Oct-21 17:32N 51°18' E 004°16'0 0.0
2014-Oct-21 16:32N 51°18' E 004°16'0 0.0
2014-Oct-21 15:32N 51°18' E 004°16'0 0.0
2014-Oct-21 14:32N 51°18' E 004°16'0 0.0
2014-Oct-21 13:32N 51°18' E 004°16'0 0.0
2014-Oct-21 12:32N 51°18' E 004°16'0 0.0
2014-Oct-21 11:32N 51°18' E 004°16'0 0.0
2014-Oct-21 10:26N 51°18' E 004°16'0 0.0
2014-Oct-21 09:17N 51°18' E 004°16'0 0.0
2014-Oct-21 08:32N 51°18' E 004°16'0 0.0
2014-Oct-21 07:32N 51°18' E 004°16'0 0.0
2014-Oct-21 06:32N 51°18' E 004°16'0 0.0
2014-Oct-21 05:32N 51°18' E 004°16'0 0.0
2014-Oct-21 04:32N 51°18' E 004°16'0 0.0
2014-Oct-21 03:32N 51°18' E 004°16'0 0.0
2014-Oct-21 02:32N 51°18' E 004°16'1 1.4
2014-Oct-21 01:33N 51°19' E 004°16'1010.1
2014-Oct-21 00:33N 51°24' E 004°02'1211.8
2014-Oct-20 23:33N 51°23' E 003°43'1111.2
2014-Oct-20 22:33N 51°25' E 003°25'1615.7
2014-Oct-20 21:33N 51°28' E 003°01'1616.3
2014-Oct-20 20:33N 51°43' E 003°13'1313.3
2014-Oct-20 19:33N 51°55' E 003°20'1514.9
2014-Oct-20 18:33N 52°04' E 003°40'1212.5
2014-Oct-20 17:33N 52°01' E 003°59'1212.0
2014-Oct-20 16:33N 51°54' E 004°16'7 6.5
2014-Oct-20 15:33N 51°54' E 004°26'0 0.3
2014-Oct-20 14:32N 51°53' E 004°26'0 0.0
2014-Oct-20 13:32N 51°53' E 004°26'0 0.0
2014-Oct-20 12:32N 51°53' E 004°26'0 0.0
2014-Oct-20 11:32N 51°53' E 004°26'0 0.0
2014-Oct-20 10:32N 51°53' E 004°26'0 0.0
2014-Oct-20 09:32N 51°53' E 004°26'0 0.0
2014-Oct-20 08:32N 51°53' E 004°26'0 0.0
2014-Oct-20 07:32N 51°53' E 004°26'0 0.0
2014-Oct-20 06:32N 51°53' E 004°26'0 0.0
2014-Oct-20 05:32N 51°53' E 004°26'0 0.0
2014-Oct-20 04:33N 51°53' E 004°26'3 2.9
2014-Oct-20 03:33N 51°54' E 004°21'9 8.9
2014-Oct-20 02:34N 51°58' E 004°08'1010.5
2014-Oct-20 01:33N 52°01' E 003°52'8 7.9
2014-Oct-20 00:33N 52°08' E 003°46'1313.0
2014-Oct-19 23:33N 52°21' E 003°48'1313.5
2014-Oct-19 22:33N 52°34' E 003°53'1914.3
2014-Oct-19 21:13N 52°53' E 003°60'2414.2
2014-Oct-19 19:32N 53°11' E 004°25'1211.4
2014-Oct-19 18:28N 53°22' E 004°34'910.4
2014-Oct-19 17:33N 53°29' E 004°44'1010.2
2014-Oct-19 16:33N 53°33' E 005°00'10 9.8
2014-Oct-19 15:33N 53°36' E 005°16'10 9.8
2014-Oct-19 14:33N 53°39' E 005°32'1010.3
2014-Oct-19 13:33N 53°42' E 005°48'1110.9
2014-Oct-19 12:33N 53°46' E 006°05'1111.4
2014-Oct-19 11:33N 53°49' E 006°24'3711.1
2014-Oct-19 08:14N 53°58' E 007°25'710.8
2014-Oct-19 07:33N 53°59' E 007°37'1010.2
2014-Oct-19 06:33N 53°53' E 007°51'1212.0
2014-Oct-19 05:33N 53°47' E 008°09'1414.2
2014-Oct-19 04:33N 53°38' E 008°27'3 3.3
2014-Oct-19 03:32N 53°36' E 008°31'0 0.0
2014-Oct-19 02:32N 53°36' E 008°31'0 0.0
2014-Oct-19 01:32N 53°36' E 008°31'0 0.0
2014-Oct-19 00:32N 53°36' E 008°31'0 0.0
2014-Oct-18 23:32N 53°36' E 008°31'0 0.0
2014-Oct-18 22:29N 53°36' E 008°31'0 0.0
2014-Oct-18 21:32N 53°36' E 008°31'0 0.0
2014-Oct-18 20:32N 53°36' E 008°31'0 0.0
2014-Oct-18 19:32N 53°36' E 008°31'0 0.0
2014-Oct-18 18:32N 53°36' E 008°31'0 0.0
2014-Oct-18 17:32N 53°36' E 008°31'0 0.0
2014-Oct-18 16:32N 53°36' E 008°31'0 0.0
2014-Oct-18 15:32N 53°36' E 008°31'0 0.0
2014-Oct-18 14:32N 53°36' E 008°31'0 0.0
2014-Oct-18 13:32N 53°36' E 008°31'0 0.0
2014-Oct-18 12:32N 53°36' E 008°31'0 0.0
2014-Oct-18 11:32N 53°36' E 008°31'0 0.0
2014-Oct-18 10:32N 53°36' E 008°31'0 0.0
2014-Oct-18 09:34N 53°36' E 008°31'7 7.5
2014-Oct-18 08:33N 53°41' E 008°22'1514.8
2014-Oct-18 07:33N 53°50' E 008°03'1313.3
2014-Oct-18 06:33N 53°52' E 007°41'1 0.6
2014-Oct-18 05:33N 53°53' E 007°40'0 0.4
2014-Oct-18 04:34N 53°52' E 007°40'0 0.3
2014-Oct-18 03:33N 53°53' E 007°39'1 0.6
2014-Oct-18 02:33N 53°53' E 007°38'0 0.5
2014-Oct-18 01:33N 53°53' E 007°38'4 3.9
2014-Oct-18 00:33N 53°57' E 007°37'1212.3
2014-Oct-17 23:33N 54°08' E 007°28'1717.2
2014-Oct-17 22:34N 54°24' E 007°17'1716.9
2014-Oct-17 21:33N 54°39' E 007°07'1716.7
2014-Oct-17 20:33N 54°55' E 006°56'1716.8
2014-Oct-17 19:33N 55°11' E 006°47'1616.4
2014-Oct-17 18:33N 55°27' E 006°44'1717.3
2014-Oct-17 17:33N 55°44' E 006°47'1717.0
2014-Oct-17 16:33N 56°02' E 006°46'1817.5
2014-Oct-17 15:32N 56°18' E 006°57'12916.0
2014-Oct-17 07:28N 57°47' E 009°49'1617.5
2014-Oct-17 06:33N 57°49' E 010°18'1717.5
2014-Oct-17 05:34N 57°47' E 010°50'1414.0
2014-Oct-17 04:33N 57°38' E 011°10'1817.7
2014-Oct-17 03:33N 57°24' E 011°30'1918.3
2014-Oct-17 02:30N 57°06' E 011°42'1717.7
2014-Oct-17 01:33N 56°50' E 011°52'1716.9
2014-Oct-17 00:33N 56°34' E 011°43'11716.6
2014-Oct-16 17:28N 54°41' E 010°47'3317.5
2014-Oct-16 15:34N 54°28' E 011°40'1717.5
2014-Oct-16 14:33N 54°27' E 012°10'1615.2
2014-Oct-16 13:31N 54°40' E 012°25'6717.0
2014-Oct-16 09:33N 55°08' E 014°11'1717.3
2014-Oct-16 08:33N 55°21' E 014°31'1716.5
2014-Oct-16 07:33N 55°32' E 014°53'1717.0
2014-Oct-16 06:33N 55°40' E 015°19'2317.3
2014-Oct-16 05:13N 55°51' E 015°55'1117.3
2014-Oct-16 04:33N 55°57' E 016°13'31616.6
2014-Oct-15 09:33N 59°38' E 023°18'1717.3
2014-Oct-15 08:33N 59°43' E 023°50'1615.7
2014-Oct-15 07:33N 59°47' E 024°20'6117.3
2014-Oct-15 04:03N 59°59' E 026°19'816.8
2014-Oct-15 03:33N 60°01' E 026°35'1616.3
2014-Oct-15 02:33N 60°01' E 027°08'9313.2
2014-Oct-14 19:32N 59°53' E 030°12'0 0.2
2014-Oct-14 18:31N 59°53' E 030°11'0 0.0
2014-Oct-14 17:31N 59°53' E 030°11'0 0.0
2014-Oct-14 16:31N 59°53' E 030°11'0 0.0
2014-Oct-14 15:31N 59°53' E 030°11'0 0.0
2014-Oct-14 14:31N 59°53' E 030°11'0 0.0
2014-Oct-14 13:31N 59°53' E 030°11'0 0.0
2014-Oct-14 12:31N 59°53' E 030°11'0 0.0
2014-Oct-14 11:32N 59°53' E 030°11'0 0.0
2014-Oct-14 10:32N 59°53' E 030°11'0 0.0
2014-Oct-14 09:33N 59°53' E 030°11'0 0.0
2014-Oct-14 08:30N 59°53' E 030°11'0 0.0
2014-Oct-14 07:33N 59°53' E 030°11'0 0.0
2014-Oct-14 06:33N 59°53' E 030°11'0 0.0
2014-Oct-14 05:33N 59°53' E 030°11'0 0.0
2014-Oct-14 03:33N 59°53' E 030°11'0 0.0
2014-Oct-14 02:33N 59°53' E 030°11'0 0.0
2014-Oct-14 01:33N 59°53' E 030°11'0 0.0
2014-Oct-14 00:33N 59°53' E 030°11'0 0.0
2014-Oct-13 23:18N 59°53' E 030°11'0 0.0
2014-Oct-13 22:33N 59°53' E 030°11'0 0.0
2014-Oct-13 21:30N 59°53' E 030°11'0 0.0
2014-Oct-13 20:33N 59°53' E 030°11'0 0.0
2014-Oct-13 19:30N 59°53' E 030°11'0 0.0
2014-Oct-13 18:33N 59°53' E 030°11'0 0.0
2014-Oct-13 17:15N 59°53' E 030°11'0 0.0
2014-Oct-13 14:33N 59°53' E 030°11'0 0.0
2014-Oct-13 13:33N 59°53' E 030°11'0 0.0
2014-Oct-13 12:33N 59°53' E 030°11'0 0.0
2014-Oct-13 11:06N 59°53' E 030°11'0 0.0
2014-Oct-13 10:12N 59°53' E 030°11'0 0.0
2014-Oct-13 09:33N 59°53' E 030°11'0 0.0
2014-Oct-13 08:18N 59°53' E 030°11'0 0.0
2014-Oct-13 07:33N 59°53' E 030°11'0 0.0
2014-Oct-13 06:33N 59°53' E 030°11'0 0.0
2014-Oct-13 05:33N 59°53' E 030°11'0 0.0
2014-Oct-13 04:33N 59°53' E 030°11'0 0.0
2014-Oct-13 03:33N 59°53' E 030°11'0 0.0
2014-Oct-13 02:33N 59°53' E 030°11'0 0.0
2014-Oct-13 01:33N 59°53' E 030°11'0 0.0
2014-Oct-13 00:33N 59°53' E 030°11'  

Dump ship's entire track history